createdAt,value
2022-08-24T00:00:23.902Z,91.13
2022-08-24T00:05:26.007Z,93.00
2022-08-24T00:10:27.618Z,93.15
2022-08-24T00:15:29.229Z,93.84
2022-08-24T00:20:30.868Z,100.00
2022-08-24T00:25:33.894Z,100.00
2022-08-24T00:30:35.862Z,100.00
2022-08-24T00:35:37.619Z,100.00
2022-08-24T00:40:42.365Z,100.00
2022-08-24T00:45:59.766Z,100.00
2022-08-24T00:51:08.535Z,99.20
2022-08-24T00:56:20.468Z,99.23
2022-08-24T01:01:22.639Z,99.22
2022-08-24T01:06:25.412Z,98.85
2022-08-24T01:11:34.003Z,96.90
2022-08-24T01:16:36.646Z,96.35
2022-08-24T01:21:47.896Z,96.31
2022-08-24T01:26:50.977Z,95.56
2022-08-24T01:31:54.102Z,95.22
2022-08-24T01:36:57.291Z,98.33
2022-08-24T01:42:00.041Z,100.00
2022-08-24T01:47:07.408Z,100.00
2022-08-24T01:52:13.933Z,100.00
2022-08-24T01:57:16.070Z,100.00
2022-08-24T02:02:27.275Z,100.00
2022-08-24T02:07:29.102Z,100.00
2022-08-24T02:12:30.714Z,100.00
2022-08-24T02:17:32.826Z,100.00
2022-08-24T02:22:34.468Z,100.00
2022-08-24T02:27:36.116Z,100.00
2022-08-24T02:32:38.084Z,100.00
2022-08-24T02:37:43.645Z,100.00
2022-08-24T02:42:48.527Z,100.00
2022-08-24T02:47:50.622Z,100.00
2022-08-24T02:52:53.511Z,100.00
2022-08-24T02:57:56.572Z,100.00
2022-08-24T03:02:58.406Z,100.00
2022-08-24T03:08:00.422Z,100.00
2022-08-24T03:13:03.103Z,100.00
2022-08-24T03:18:05.207Z,100.00
2022-08-24T03:23:06.867Z,100.00
2022-08-24T03:28:11.183Z,100.00
2022-08-24T03:33:14.329Z,100.00
2022-08-24T03:38:16.418Z,100.00
2022-08-24T03:43:18.369Z,100.00
2022-08-24T03:48:20.176Z,100.00
2022-08-24T03:53:22.219Z,100.00
2022-08-24T03:58:24.191Z,100.00
2022-08-24T04:03:26.862Z,100.00
2022-08-24T04:08:35.742Z,100.00
2022-08-24T04:13:37.579Z,100.00
2022-08-24T04:18:41.063Z,100.00
2022-08-24T04:23:47.528Z,100.00
2022-08-24T04:28:51.064Z,100.00
2022-08-24T04:33:54.200Z,100.00
2022-08-24T04:38:56.944Z,100.00
2022-08-24T04:44:28.036Z,100.00
2022-08-24T04:49:36.329Z,100.00
2022-08-24T04:54:38.037Z,100.00
2022-08-24T04:59:50.844Z,100.00
2022-08-24T05:04:52.445Z,100.00
2022-08-24T05:09:54.975Z,100.00
2022-08-24T05:15:00.272Z,100.00
2022-08-24T05:20:04.570Z,100.00
2022-08-24T05:25:06.977Z,100.00
2022-08-24T05:30:12.035Z,100.00
2022-08-24T05:35:14.095Z,100.00
2022-08-24T05:40:19.503Z,100.00
2022-08-24T05:45:24.965Z,97.91
2022-08-24T05:50:26.782Z,95.18
2022-08-24T05:55:28.421Z,91.23
2022-08-24T06:00:30.648Z,90.45
2022-08-24T06:05:33.206Z,86.41
2022-08-24T06:10:43.488Z,83.94
2022-08-24T06:15:59.444Z,84.11
2022-08-24T06:21:11.345Z,82.15
2022-08-24T06:26:18.280Z,78.37
2022-08-24T06:31:22.825Z,75.59
2022-08-24T06:36:27.408Z,72.49
2022-08-24T06:41:29.399Z,69.10
2022-08-24T06:46:33.038Z,67.98
2022-08-24T06:51:35.318Z,66.05
2022-08-24T06:56:38.347Z,66.44
2022-08-24T07:01:40.190Z,66.06
2022-08-24T07:06:42.066Z,65.38
2022-08-24T07:11:44.482Z,59.53
2022-08-24T07:16:46.161Z,59.09
2022-08-24T07:21:48.406Z,54.20
2022-08-24T07:26:50.068Z,55.15
2022-08-24T07:31:52.266Z,56.47
2022-08-24T07:37:07.354Z,53.55
2022-08-24T07:42:15.838Z,52.22
2022-08-24T07:47:37.711Z,50.11
2022-08-24T07:52:48.651Z,50.36
2022-08-24T07:57:50.908Z,48.53
2022-08-24T08:02:53.232Z,50.89
2022-08-24T08:07:55.539Z,50.39
2022-08-24T08:12:57.533Z,47.46
2022-08-24T08:17:59.595Z,43.16
2022-08-24T08:23:01.921Z,46.86
2022-08-24T08:28:33.106Z,48.33
2022-08-24T08:33:37.294Z,45.94
2022-08-24T08:38:39.900Z,42.67
2022-08-24T08:43:45.623Z,42.22
2022-08-24T08:48:59.154Z,40.53
2022-08-24T08:54:33.172Z,39.50
2022-08-24T08:59:54.822Z,38.36
2022-08-24T09:05:15.152Z,40.38
2022-08-24T09:10:22.852Z,39.97
2022-08-24T09:15:43.004Z,38.91
2022-08-24T09:20:54.175Z,37.34
2022-08-24T09:26:08.953Z,38.36
2022-08-24T09:37:00.672Z,33.09
2022-08-24T09:42:21.009Z,34.03
2022-08-24T09:47:46.492Z,34.76
2022-08-24T09:52:48.212Z,34.33
2022-08-24T09:58:27.068Z,32.04
2022-08-24T10:03:53.660Z,29.85
2022-08-24T10:09:04.551Z,29.69
2022-08-24T10:14:30.898Z,33.83
2022-08-24T10:20:20.685Z,31.08
2022-08-24T10:25:40.304Z,33.68
2022-08-24T10:30:50.378Z,32.66
2022-08-24T10:35:57.693Z,31.39
2022-08-24T10:41:14.423Z,30.99
2022-08-24T10:46:35.962Z,30.56
2022-08-24T10:51:59.469Z,31.02
2022-08-24T10:57:22.449Z,29.85
2022-08-24T11:02:32.168Z,30.00
2022-08-24T11:07:35.371Z,30.00
2022-08-24T11:12:39.019Z,26.87
2022-08-24T11:18:03.123Z,27.78
2022-08-24T11:23:29.625Z,28.47
2022-08-24T11:28:39.005Z,28.18
2022-08-24T11:33:50.249Z,26.32
2022-08-24T11:39:17.320Z,24.99
2022-08-24T11:44:32.571Z,25.15
2022-08-24T11:49:54.998Z,24.72
2022-08-24T11:55:10.363Z,26.03
2022-08-24T12:00:14.705Z,24.86
2022-08-24T12:05:35.617Z,22.73
2022-08-24T12:11:03.339Z,22.27
2022-08-24T12:16:16.858Z,24.38
2022-08-24T12:21:23.897Z,21.75
2022-08-24T12:26:35.589Z,21.35
2022-08-24T12:31:48.433Z,22.49
2022-08-24T12:37:16.358Z,22.57
2022-08-24T12:42:33.407Z,23.31
2022-08-24T12:47:49.776Z,23.43
2022-08-24T12:53:15.153Z,21.93
2022-08-24T12:58:35.060Z,21.05
2022-08-24T13:03:40.601Z,20.82
2022-08-24T13:08:46.171Z,22.17
2022-08-24T13:14:15.226Z,20.59
2022-08-24T13:19:22.921Z,21.84
2022-08-24T13:24:27.945Z,20.21
2022-08-24T13:29:33.759Z,19.83
2022-08-24T13:34:43.667Z,19.75
2022-08-24T13:40:00.846Z,20.71
2022-08-24T13:45:17.744Z,21.16
2022-08-24T13:50:31.339Z,20.34
2022-08-24T13:55:44.949Z,20.06
2022-08-24T14:01:01.568Z,21.07
2022-08-24T14:06:25.133Z,20.73
2022-08-24T14:11:35.700Z,21.33
2022-08-24T14:17:07.069Z,21.68
2022-08-24T14:22:51.710Z,20.68
2022-08-24T14:27:59.381Z,19.92
2022-08-24T14:33:01.069Z,20.35
2022-08-24T14:38:20.912Z,19.72
2022-08-24T14:43:34.743Z,20.01
2022-08-24T14:49:00.897Z,18.37
2022-08-24T14:54:40.301Z,19.50
2022-08-24T15:00:06.562Z,19.10
2022-08-24T15:05:35.389Z,19.63
2022-08-24T15:10:44.119Z,18.50
2022-08-24T15:16:13.842Z,19.69
2022-08-24T15:21:37.393Z,19.99
2022-08-24T15:27:08.073Z,18.88
2022-08-24T15:32:12.485Z,17.75
2022-08-24T15:37:30.812Z,17.68
2022-08-24T15:42:36.798Z,18.40
2022-08-24T15:47:40.986Z,18.06
2022-08-24T15:52:53.817Z,17.72
2022-08-24T15:57:56.580Z,18.07
2022-08-24T16:03:21.021Z,18.06
2022-08-24T16:08:23.782Z,17.58
2022-08-24T16:13:29.837Z,19.86
2022-08-24T16:18:52.282Z,20.60
2022-08-24T16:24:06.469Z,20.57
2022-08-24T16:29:08.110Z,20.05
2022-08-24T16:34:21.574Z,18.97
2022-08-24T16:39:23.740Z,19.60
2022-08-24T16:44:31.636Z,20.71
2022-08-24T16:49:33.374Z,20.63
2022-08-24T16:54:35.123Z,20.18
2022-08-24T16:59:37.011Z,20.83
2022-08-24T17:04:39.418Z,20.99
2022-08-24T17:09:44.333Z,21.79
2022-08-24T17:14:46.244Z,22.80
2022-08-24T17:19:52.876Z,23.27
2022-08-24T17:24:54.664Z,23.62
2022-08-24T17:29:56.584Z,23.71
2022-08-24T17:34:58.506Z,24.53
2022-08-24T17:40:00.163Z,24.55
2022-08-24T17:45:02.043Z,25.94
2022-08-24T17:50:06.372Z,26.20
2022-08-24T17:55:11.370Z,26.76
2022-08-24T18:00:14.295Z,27.08
2022-08-24T18:05:16.101Z,27.60
2022-08-24T18:10:21.864Z,28.30
2022-08-24T18:15:34.610Z,28.39
2022-08-24T18:20:40.454Z,29.77
2022-08-24T18:25:49.456Z,29.95
2022-08-24T18:30:51.894Z,31.44
2022-08-24T18:35:53.577Z,31.54
2022-08-24T18:41:01.544Z,32.02
2022-08-24T18:46:03.573Z,31.99
2022-08-24T18:51:05.816Z,32.42
2022-08-24T18:56:12.268Z,33.22
2022-08-24T19:01:14.713Z,33.20
2022-08-24T19:06:16.756Z,34.09
2022-08-24T19:11:23.171Z,34.82
2022-08-24T19:16:24.885Z,36.96
2022-08-24T19:21:29.600Z,37.60
2022-08-24T19:26:33.547Z,39.62
2022-08-24T19:31:35.303Z,38.43
2022-08-24T19:36:37.136Z,38.82
2022-08-24T19:41:43.015Z,38.05
2022-08-24T19:46:47.837Z,38.10
2022-08-24T19:51:51.050Z,39.12
2022-08-24T19:56:53.585Z,40.89
2022-08-24T20:01:55.283Z,43.21
2022-08-24T20:06:57.694Z,43.90
2022-08-24T20:11:59.333Z,43.87
2022-08-24T20:17:01.531Z,43.37
2022-08-24T20:22:13.064Z,42.73
2022-08-24T20:27:21.218Z,42.57
2022-08-24T20:32:23.581Z,43.00
2022-08-24T20:37:28.244Z,43.44
2022-08-24T20:42:30.461Z,43.57
2022-08-24T20:47:32.219Z,43.62
2022-08-24T20:52:34.002Z,43.88
2022-08-24T20:57:35.766Z,44.57
2022-08-24T21:02:37.424Z,45.52
2022-08-24T21:07:39.662Z,46.26
2022-08-24T21:12:41.277Z,47.11
2022-08-24T21:17:45.893Z,47.68
2022-08-24T21:22:47.568Z,47.72
2022-08-24T21:27:49.385Z,48.33
2022-08-24T21:32:51.080Z,49.32
2022-08-24T21:37:53.069Z,50.30
2022-08-24T21:42:55.753Z,49.81
2022-08-24T21:47:57.434Z,50.54
2022-08-24T21:52:59.709Z,49.78
2022-08-24T21:58:01.410Z,49.59
2022-08-24T22:03:05.393Z,48.69
2022-08-24T22:08:07.117Z,50.34
2022-08-24T22:13:08.879Z,52.03
2022-08-24T22:18:10.737Z,51.83
2022-08-24T22:23:12.364Z,49.90
2022-08-24T22:28:13.920Z,50.09
2022-08-24T22:33:15.966Z,50.99
2022-08-24T22:38:18.644Z,53.36
2022-08-24T22:43:23.245Z,54.32
2022-08-24T22:48:26.610Z,55.37
2022-08-24T22:53:28.574Z,56.27
2022-08-24T22:58:30.279Z,57.44
2022-08-24T23:03:31.961Z,57.17
2022-08-24T23:08:33.658Z,57.78
2022-08-24T23:13:36.173Z,58.35
2022-08-24T23:18:38.879Z,58.91
2022-08-24T23:23:40.766Z,58.71
2022-08-24T23:28:43.139Z,58.79
2022-08-24T23:33:46.463Z,58.74
2022-08-24T23:38:50.196Z,58.87
2022-08-24T23:43:53.591Z,60.69
2022-08-24T23:48:56.719Z,61.70
2022-08-24T23:54:00.682Z,61.79
2022-08-24T23:59:08.973Z,62.72
